sensor_id;sensor_type;location;lat;lon;timestamp;P1;durP1;ratioP1;P2;durP2;ratioP2
1721;SDS011;858;53.190;8.596;2022-10-17T00:02:01;12.27;;;9.00;;
1721;SDS011;858;53.190;8.596;2022-10-17T00:04:27;13.35;;;9.60;;
1721;SDS011;858;53.190;8.596;2022-10-17T00:06:54;15.02;;;9.50;;
1721;SDS011;858;53.190;8.596;2022-10-17T00:09:20;14.23;;;9.48;;
1721;SDS011;858;53.190;8.596;2022-10-17T00:11:48;13.85;;;9.00;;
1721;SDS011;858;53.190;8.596;2022-10-17T00:14:14;14.80;;;9.50;;
1721;SDS011;858;53.190;8.596;2022-10-17T00:16:41;15.57;;;8.80;;
1721;SDS011;858;53.190;8.596;2022-10-17T00:19:07;13.00;;;8.32;;
1721;SDS011;858;53.190;8.596;2022-10-17T00:21:33;13.05;;;8.00;;
1721;SDS011;858;53.190;8.596;2022-10-17T00:24:00;9.45;;;7.75;;
1721;SDS011;858;53.190;8.596;2022-10-17T00:26:26;11.02;;;8.10;;
1721;SDS011;858;53.190;8.596;2022-10-17T00:28:56;16.08;;;8.55;;
1721;SDS011;858;53.190;8.596;2022-10-17T00:31:22;18.98;;;8.40;;
1721;SDS011;858;53.190;8.596;2022-10-17T00:33:49;14.27;;;8.23;;
1721;SDS011;858;53.190;8.596;2022-10-17T00:36:17;10.60;;;7.90;;
1721;SDS011;858;53.190;8.596;2022-10-17T00:38:45;12.25;;;7.93;;
1721;SDS011;858;53.190;8.596;2022-10-17T00:41:12;10.73;;;6.93;;
1721;SDS011;858;53.190;8.596;2022-10-17T00:43:55;11.23;;;7.20;;
1721;SDS011;858;53.190;8.596;2022-10-17T00:46:24;10.13;;;7.20;;
1721;SDS011;858;53.190;8.596;2022-10-17T00:48:51;10.20;;;7.15;;
1721;SDS011;858;53.190;8.596;2022-10-17T00:51:18;10.32;;;7.40;;
1721;SDS011;858;53.190;8.596;2022-10-17T00:53:45;10.50;;;7.20;;
1721;SDS011;858;53.190;8.596;2022-10-17T00:56:12;9.05;;;7.10;;
1721;SDS011;858;53.190;8.596;2022-10-17T00:58:39;12.50;;;7.50;;
1721;SDS011;858;53.190;8.596;2022-10-17T01:01:05;9.80;;;6.53;;
1721;SDS011;858;53.190;8.596;2022-10-17T01:03:33;9.23;;;6.80;;
1721;SDS011;858;53.190;8.596;2022-10-17T01:05:59;12.00;;;6.40;;
1721;SDS011;858;53.190;8.596;2022-10-17T01:08:26;12.65;;;6.63;;
1721;SDS011;858;53.190;8.596;2022-10-17T01:10:54;9.57;;;6.50;;
1721;SDS011;858;53.190;8.596;2022-10-17T01:13:24;9.65;;;6.25;;
1721;SDS011;858;53.190;8.596;2022-10-17T01:15:55;10.23;;;6.20;;
1721;SDS011;858;53.190;8.596;2022-10-17T01:18:27;8.00;;;6.67;;
1721;SDS011;858;53.190;8.596;2022-10-17T01:23:51;8.27;;;7.00;;
1721;SDS011;858;53.190;8.596;2022-10-17T01:26:22;17.50;;;7.40;;
1721;SDS011;858;53.190;8.596;2022-10-17T01:31:34;15.77;;;7.60;;
1721;SDS011;858;53.190;8.596;2022-10-17T01:34:03;11.77;;;7.10;;
1721;SDS011;858;53.190;8.596;2022-10-17T01:36:35;9.85;;;6.40;;
1721;SDS011;858;53.190;8.596;2022-10-17T01:39:05;9.20;;;6.65;;
1721;SDS011;858;53.190;8.596;2022-10-17T01:41:37;10.27;;;6.47;;
1721;SDS011;858;53.190;8.596;2022-10-17T01:44:07;10.18;;;6.00;;
1721;SDS011;858;53.190;8.596;2022-10-17T01:46:37;11.68;;;6.85;;
1721;SDS011;858;53.190;8.596;2022-10-17T01:49:04;10.55;;;6.80;;
1721;SDS011;858;53.190;8.596;2022-10-17T01:51:32;10.48;;;6.40;;
1721;SDS011;858;53.190;8.596;2022-10-17T01:54:02;8.60;;;7.00;;
1721;SDS011;858;53.190;8.596;2022-10-17T01:56:30;7.10;;;5.95;;
1721;SDS011;858;53.190;8.596;2022-10-17T01:58:59;12.17;;;6.83;;
1721;SDS011;858;53.190;8.596;2022-10-17T02:01:26;9.48;;;6.38;;
1721;SDS011;858;53.190;8.596;2022-10-17T02:03:56;7.90;;;6.20;;
1721;SDS011;858;53.190;8.596;2022-10-17T02:06:24;12.30;;;6.30;;
1721;SDS011;858;53.190;8.596;2022-10-17T02:08:50;7.50;;;5.70;;
1721;SDS011;858;53.190;8.596;2022-10-17T02:11:17;10.10;;;6.05;;
1721;SDS011;858;53.190;8.596;2022-10-17T02:13:48;10.07;;;6.50;;
1721;SDS011;858;53.190;8.596;2022-10-17T02:16:20;9.17;;;6.20;;
1721;SDS011;858;53.190;8.596;2022-10-17T02:18:55;12.50;;;6.63;;
1721;SDS011;858;53.190;8.596;2022-10-17T02:21:29;9.13;;;5.60;;
1721;SDS011;858;53.190;8.596;2022-10-17T02:24:00;6.85;;;5.60;;
1721;SDS011;858;53.190;8.596;2022-10-17T02:26:31;9.40;;;6.47;;
1721;SDS011;858;53.190;8.596;2022-10-17T02:29:02;11.73;;;6.22;;
1721;SDS011;858;53.190;8.596;2022-10-17T02:31:32;9.10;;;6.07;;
1721;SDS011;858;53.190;8.596;2022-10-17T02:34:00;8.98;;;6.20;;
1721;SDS011;858;53.190;8.596;2022-10-17T02:36:29;7.00;;;6.00;;
1721;SDS011;858;53.190;8.596;2022-10-17T02:38:57;7.68;;;6.03;;
1721;SDS011;858;53.190;8.596;2022-10-17T02:41:24;8.38;;;6.53;;
1721;SDS011;858;53.190;8.596;2022-10-17T02:43:52;6.70;;;6.10;;
1721;SDS011;858;53.190;8.596;2022-10-17T02:46:22;10.57;;;6.57;;
1721;SDS011;858;53.190;8.596;2022-10-17T02:48:50;8.67;;;6.17;;
1721;SDS011;858;53.190;8.596;2022-10-17T02:51:19;8.13;;;6.80;;
1721;SDS011;858;53.190;8.596;2022-10-17T02:53:52;7.30;;;6.27;;
1721;SDS011;858;53.190;8.596;2022-10-17T02:56:20;7.38;;;6.32;;
1721;SDS011;858;53.190;8.596;2022-10-17T02:58:47;10.80;;;6.80;;
1721;SDS011;858;53.190;8.596;2022-10-17T03:01:15;9.40;;;6.80;;
1721;SDS011;858;53.190;8.596;2022-10-17T03:03:42;8.18;;;6.07;;
1721;SDS011;858;53.190;8.596;2022-10-17T03:06:10;7.03;;;6.32;;
1721;SDS011;858;53.190;8.596;2022-10-17T03:08:36;10.43;;;6.53;;
1721;SDS011;858;53.190;8.596;2022-10-17T03:11:04;7.70;;;6.60;;
1721;SDS011;858;53.190;8.596;2022-10-17T03:13:31;6.72;;;6.13;;
1721;SDS011;858;53.190;8.596;2022-10-17T03:15:57;7.68;;;5.70;;
1721;SDS011;858;53.190;8.596;2022-10-17T03:18:23;13.13;;;6.88;;
1721;SDS011;858;53.190;8.596;2022-10-17T03:20:50;9.68;;;6.65;;
1721;SDS011;858;53.190;8.596;2022-10-17T03:23:16;8.93;;;6.32;;
1721;SDS011;858;53.190;8.596;2022-10-17T03:25:43;7.32;;;6.63;;
1721;SDS011;858;53.190;8.596;2022-10-17T03:28:11;7.97;;;7.18;;
1721;SDS011;858;53.190;8.596;2022-10-17T03:30:38;10.40;;;7.27;;
1721;SDS011;858;53.190;8.596;2022-10-17T03:33:05;9.10;;;6.70;;
1721;SDS011;858;53.190;8.596;2022-10-17T03:35:31;8.98;;;7.00;;
1721;SDS011;858;53.190;8.596;2022-10-17T03:37:58;10.07;;;7.30;;
1721;SDS011;858;53.190;8.596;2022-10-17T03:40:24;8.80;;;7.40;;
1721;SDS011;858;53.190;8.596;2022-10-17T03:42:51;8.10;;;7.30;;
1721;SDS011;858;53.190;8.596;2022-10-17T03:45:18;9.30;;;7.60;;
1721;SDS011;858;53.190;8.596;2022-10-17T03:47:45;8.63;;;7.60;;
1721;SDS011;858;53.190;8.596;2022-10-17T03:50:13;15.07;;;8.05;;
1721;SDS011;858;53.190;8.596;2022-10-17T03:52:40;9.20;;;8.07;;
1721;SDS011;858;53.190;8.596;2022-10-17T03:55:06;9.98;;;8.50;;
1721;SDS011;858;53.190;8.596;2022-10-17T03:57:33;11.38;;;8.38;;
1721;SDS011;858;53.190;8.596;2022-10-17T04:00:00;8.25;;;7.45;;
1721;SDS011;858;53.190;8.596;2022-10-17T04:02:28;9.57;;;7.70;;
1721;SDS011;858;53.190;8.596;2022-10-17T04:04:54;12.50;;;8.55;;
1721;SDS011;858;53.190;8.596;2022-10-17T04:07:20;13.50;;;9.00;;
1721;SDS011;858;53.190;8.596;2022-10-17T04:09:47;11.05;;;9.65;;
1721;SDS011;858;53.190;8.596;2022-10-17T04:12:13;9.30;;;8.27;;
1721;SDS011;858;53.190;8.596;2022-10-17T04:14:40;9.95;;;7.80;;
1721;SDS011;858;53.190;8.596;2022-10-17T04:17:06;10.80;;;8.80;;
1721;SDS011;858;53.190;8.596;2022-10-17T04:19:34;12.20;;;9.23;;
1721;SDS011;858;53.190;8.596;2022-10-17T04:22:01;9.60;;;8.60;;
1721;SDS011;858;53.190;8.596;2022-10-17T04:24:28;10.70;;;8.48;;
1721;SDS011;858;53.190;8.596;2022-10-17T04:26:54;13.75;;;9.20;;
1721;SDS011;858;53.190;8.596;2022-10-17T04:29:20;12.10;;;8.88;;
1721;SDS011;858;53.190;8.596;2022-10-17T04:31:47;12.30;;;9.30;;
1721;SDS011;858;53.190;8.596;2022-10-17T04:34:13;13.05;;;9.20;;
1721;SDS011;858;53.190;8.596;2022-10-17T04:36:41;11.45;;;8.93;;
1721;SDS011;858;53.190;8.596;2022-10-17T04:39:08;13.88;;;8.98;;
1721;SDS011;858;53.190;8.596;2022-10-17T04:41:34;13.52;;;9.80;;
1721;SDS011;858;53.190;8.596;2022-10-17T04:44:01;10.43;;;9.30;;
1721;SDS011;858;53.190;8.596;2022-10-17T04:46:27;13.17;;;9.37;;
1721;SDS011;858;53.190;8.596;2022-10-17T04:48:54;12.55;;;9.75;;
1721;SDS011;858;53.190;8.596;2022-10-17T04:51:20;11.73;;;9.57;;
1721;SDS011;858;53.190;8.596;2022-10-17T04:53:48;14.90;;;10.05;;
1721;SDS011;858;53.190;8.596;2022-10-17T04:56:15;11.37;;;10.17;;
1721;SDS011;858;53.190;8.596;2022-10-17T04:58:42;12.20;;;9.43;;
1721;SDS011;858;53.190;8.596;2022-10-17T05:01:10;12.35;;;9.60;;
1721;SDS011;858;53.190;8.596;2022-10-17T05:03:36;13.70;;;11.20;;
1721;SDS011;858;53.190;8.596;2022-10-17T05:06:03;16.40;;;11.25;;
1721;SDS011;858;53.190;8.596;2022-10-17T05:08:30;13.43;;;10.35;;
1721;SDS011;858;53.190;8.596;2022-10-17T05:10:58;15.27;;;11.65;;
1721;SDS011;858;53.190;8.596;2022-10-17T05:13:24;13.35;;;10.35;;
1721;SDS011;858;53.190;8.596;2022-10-17T05:15:51;14.23;;;10.52;;
1721;SDS011;858;53.190;8.596;2022-10-17T05:18:18;14.15;;;11.27;;
1721;SDS011;858;53.190;8.596;2022-10-17T05:20:45;12.32;;;11.00;;
1721;SDS011;858;53.190;8.596;2022-10-17T05:23:11;16.45;;;13.18;;
1721;SDS011;858;53.190;8.596;2022-10-17T05:25:38;13.00;;;11.30;;
1721;SDS011;858;53.190;8.596;2022-10-17T05:28:06;16.77;;;11.80;;
1721;SDS011;858;53.190;8.596;2022-10-17T05:30:33;16.65;;;13.07;;
1721;SDS011;858;53.190;8.596;2022-10-17T05:33:00;13.55;;;11.48;;
1721;SDS011;858;53.190;8.596;2022-10-17T05:35:28;19.80;;;13.13;;
1721;SDS011;858;53.190;8.596;2022-10-17T05:37:57;19.43;;;13.50;;
1721;SDS011;858;53.190;8.596;2022-10-17T05:40:24;16.52;;;12.70;;
1721;SDS011;858;53.190;8.596;2022-10-17T05:42:50;16.03;;;12.43;;
1721;SDS011;858;53.190;8.596;2022-10-17T05:45:18;19.77;;;12.75;;
1721;SDS011;858;53.190;8.596;2022-10-17T05:47:45;19.55;;;13.32;;
1721;SDS011;858;53.190;8.596;2022-10-17T05:50:11;17.80;;;12.88;;
1721;SDS011;858;53.190;8.596;2022-10-17T05:52:37;17.17;;;13.38;;
1721;SDS011;858;53.190;8.596;2022-10-17T05:55:04;16.60;;;12.60;;
1721;SDS011;858;53.190;8.596;2022-10-17T05:57:31;16.50;;;13.00;;
1721;SDS011;858;53.190;8.596;2022-10-17T05:59:58;14.75;;;12.20;;
1721;SDS011;858;53.190;8.596;2022-10-17T06:02:26;18.53;;;13.73;;
1721;SDS011;858;53.190;8.596;2022-10-17T06:04:52;17.40;;;13.85;;
1721;SDS011;858;53.190;8.596;2022-10-17T06:07:19;17.80;;;13.75;;
1721;SDS011;858;53.190;8.596;2022-10-17T06:09:45;19.25;;;13.38;;
1721;SDS011;858;53.190;8.596;2022-10-17T06:12:11;16.00;;;12.20;;
1721;SDS011;858;53.190;8.596;2022-10-17T06:14:38;16.45;;;13.00;;
1721;SDS011;858;53.190;8.596;2022-10-17T06:17:05;19.33;;;12.55;;
1721;SDS011;858;53.190;8.596;2022-10-17T06:19:35;17.00;;;12.98;;
1721;SDS011;858;53.190;8.596;2022-10-17T06:22:01;14.30;;;11.80;;
1721;SDS011;858;53.190;8.596;2022-10-17T06:24:27;19.05;;;12.35;;
1721;SDS011;858;53.190;8.596;2022-10-17T06:26:54;16.88;;;12.88;;
1721;SDS011;858;53.190;8.596;2022-10-17T06:29:21;19.33;;;12.73;;
1721;SDS011;858;53.190;8.596;2022-10-17T06:31:47;17.42;;;12.60;;
1721;SDS011;858;53.190;8.596;2022-10-17T06:34:14;17.60;;;12.87;;
1721;SDS011;858;53.190;8.596;2022-10-17T06:36:42;14.50;;;13.00;;
1721;SDS011;858;53.190;8.596;2022-10-17T06:39:08;17.75;;;12.93;;
1721;SDS011;858;53.190;8.596;2022-10-17T06:41:35;14.67;;;12.60;;
1721;SDS011;858;53.190;8.596;2022-10-17T06:44:01;14.20;;;12.02;;
1721;SDS011;858;53.190;8.596;2022-10-17T06:46:33;14.57;;;11.32;;
1721;SDS011;858;53.190;8.596;2022-10-17T06:48:59;14.60;;;11.00;;
1721;SDS011;858;53.190;8.596;2022-10-17T06:51:26;14.75;;;11.05;;
1721;SDS011;858;53.190;8.596;2022-10-17T06:53:57;11.45;;;10.25;;
1721;SDS011;858;53.190;8.596;2022-10-17T06:56:23;10.77;;;9.48;;
1721;SDS011;858;53.190;8.596;2022-10-17T06:58:51;11.13;;;9.88;;
1721;SDS011;858;53.190;8.596;2022-10-17T07:01:17;12.52;;;10.30;;
1721;SDS011;858;53.190;8.596;2022-10-17T07:03:46;13.07;;;10.70;;
1721;SDS011;858;53.190;8.596;2022-10-17T07:06:12;11.23;;;9.83;;
1721;SDS011;858;53.190;8.596;2022-10-17T07:08:41;17.98;;;10.77;;
1721;SDS011;858;53.190;8.596;2022-10-17T07:11:09;11.65;;;10.45;;
1721;SDS011;858;53.190;8.596;2022-10-17T07:13:36;12.00;;;10.63;;
1721;SDS011;858;53.190;8.596;2022-10-17T07:16:03;11.40;;;10.20;;
1721;SDS011;858;53.190;8.596;2022-10-17T07:18:30;11.30;;;9.77;;
1721;SDS011;858;53.190;8.596;2022-10-17T07:20:57;15.70;;;10.00;;
1721;SDS011;858;53.190;8.596;2022-10-17T07:23:23;11.02;;;9.40;;
1721;SDS011;858;53.190;8.596;2022-10-17T07:25:50;10.88;;;9.77;;
1721;SDS011;858;53.190;8.596;2022-10-17T07:28:17;12.32;;;9.63;;
1721;SDS011;858;53.190;8.596;2022-10-17T07:30:44;10.90;;;9.60;;
1721;SDS011;858;53.190;8.596;2022-10-17T07:33:10;10.93;;;9.52;;
1721;SDS011;858;53.190;8.596;2022-10-17T07:35:39;12.20;;;9.82;;
1721;SDS011;858;53.190;8.596;2022-10-17T07:38:06;13.00;;;9.00;;
1721;SDS011;858;53.190;8.596;2022-10-17T07:40:32;11.10;;;9.73;;
1721;SDS011;858;53.190;8.596;2022-10-17T07:42:58;9.65;;;8.40;;
1721;SDS011;858;53.190;8.596;2022-10-17T07:45:26;14.82;;;9.75;;
1721;SDS011;858;53.190;8.596;2022-10-17T07:47:54;10.63;;;9.53;;
1721;SDS011;858;53.190;8.596;2022-10-17T07:50:20;12.07;;;9.80;;
1721;SDS011;858;53.190;8.596;2022-10-17T07:52:47;11.13;;;9.93;;
1721;SDS011;858;53.190;8.596;2022-10-17T07:55:13;11.63;;;10.23;;
1721;SDS011;858;53.190;8.596;2022-10-17T07:57:40;11.82;;;9.45;;
1721;SDS011;858;53.190;8.596;2022-10-17T08:00:06;12.13;;;9.18;;
1721;SDS011;858;53.190;8.596;2022-10-17T08:02:34;10.25;;;9.20;;
1721;SDS011;858;53.190;8.596;2022-10-17T08:05:01;11.90;;;8.70;;
1721;SDS011;858;53.190;8.596;2022-10-17T08:07:28;10.38;;;9.27;;
1721;SDS011;858;53.190;8.596;2022-10-17T08:09:55;10.73;;;9.50;;
1721;SDS011;858;53.190;8.596;2022-10-17T08:12:21;9.75;;;8.48;;
1721;SDS011;858;53.190;8.596;2022-10-17T08:14:49;10.85;;;9.18;;
1721;SDS011;858;53.190;8.596;2022-10-17T08:17:16;9.55;;;8.32;;
1721;SDS011;858;53.190;8.596;2022-10-17T08:19:44;10.85;;;8.13;;
1721;SDS011;858;53.190;8.596;2022-10-17T08:22:10;10.70;;;8.32;;
1721;SDS011;858;53.190;8.596;2022-10-17T08:24:37;9.17;;;8.27;;
1721;SDS011;858;53.190;8.596;2022-10-17T08:27:03;9.48;;;8.45;;
1721;SDS011;858;53.190;8.596;2022-10-17T08:29:35;9.70;;;7.93;;
1721;SDS011;858;53.190;8.596;2022-10-17T08:32:01;10.43;;;8.20;;
1721;SDS011;858;53.190;8.596;2022-10-17T08:34:28;11.57;;;8.20;;
1721;SDS011;858;53.190;8.596;2022-10-17T08:36:56;10.80;;;8.07;;
1721;SDS011;858;53.190;8.596;2022-10-17T08:39:22;10.90;;;8.20;;
1721;SDS011;858;53.190;8.596;2022-10-17T08:41:52;10.55;;;8.27;;
1721;SDS011;858;53.190;8.596;2022-10-17T08:44:25;14.30;;;8.50;;
1721;SDS011;858;53.190;8.596;2022-10-17T08:46:52;12.52;;;8.40;;
1721;SDS011;858;53.190;8.596;2022-10-17T08:49:30;7.95;;;7.15;;
1721;SDS011;858;53.190;8.596;2022-10-17T08:52:03;8.60;;;7.57;;
1721;SDS011;858;53.190;8.596;2022-10-17T08:54:32;8.50;;;7.30;;
1721;SDS011;858;53.190;8.596;2022-10-17T08:57:03;7.70;;;7.00;;
1721;SDS011;858;53.190;8.596;2022-10-17T08:59:30;9.20;;;7.50;;
1721;SDS011;858;53.190;8.596;2022-10-17T09:01:59;12.13;;;6.60;;
1721;SDS011;858;53.190;8.596;2022-10-17T09:07:11;9.50;;;7.00;;
1721;SDS011;858;53.190;8.596;2022-10-17T09:09:40;9.98;;;6.55;;
1721;SDS011;858;53.190;8.596;2022-10-17T09:12:13;8.35;;;7.10;;
1721;SDS011;858;53.190;8.596;2022-10-17T09:17:31;8.30;;;6.80;;
1721;SDS011;858;53.190;8.596;2022-10-17T09:20:00;8.55;;;6.88;;
1721;SDS011;858;53.190;8.596;2022-10-17T09:22:32;8.50;;;6.60;;
1721;SDS011;858;53.190;8.596;2022-10-17T09:24:59;10.65;;;6.53;;
1721;SDS011;858;53.190;8.596;2022-10-17T09:27:31;7.80;;;7.00;;
1721;SDS011;858;53.190;8.596;2022-10-17T09:30:01;9.53;;;6.87;;
1721;SDS011;858;53.190;8.596;2022-10-17T09:32:28;9.35;;;7.47;;
1721;SDS011;858;53.190;8.596;2022-10-17T09:34:55;10.48;;;7.30;;
1721;SDS011;858;53.190;8.596;2022-10-17T09:37:23;9.05;;;7.00;;
1721;SDS011;858;53.190;8.596;2022-10-17T09:39:53;8.40;;;6.65;;
1721;SDS011;858;53.190;8.596;2022-10-17T09:42:20;8.18;;;6.40;;
1721;SDS011;858;53.190;8.596;2022-10-17T09:44:49;8.77;;;6.50;;
1721;SDS011;858;53.190;8.596;2022-10-17T09:47:21;7.45;;;6.43;;
1721;SDS011;858;53.190;8.596;2022-10-17T09:49:49;8.00;;;6.50;;
1721;SDS011;858;53.190;8.596;2022-10-17T09:52:17;9.93;;;6.67;;
1721;SDS011;858;53.190;8.596;2022-10-17T09:54:45;9.23;;;6.32;;
1721;SDS011;858;53.190;8.596;2022-10-17T09:57:14;9.30;;;6.77;;
1721;SDS011;858;53.190;8.596;2022-10-17T09:59:42;9.35;;;6.57;;
1721;SDS011;858;53.190;8.596;2022-10-17T10:02:14;10.02;;;7.30;;
1721;SDS011;858;53.190;8.596;2022-10-17T10:04:50;11.40;;;6.15;;
1721;SDS011;858;53.190;8.596;2022-10-17T10:07:17;8.90;;;6.30;;
1721;SDS011;858;53.190;8.596;2022-10-17T10:09:45;8.20;;;6.60;;
1721;SDS011;858;53.190;8.596;2022-10-17T10:12:16;9.30;;;6.73;;
1721;SDS011;858;53.190;8.596;2022-10-17T10:14:43;8.60;;;7.10;;
1721;SDS011;858;53.190;8.596;2022-10-17T10:17:23;9.25;;;6.60;;
1721;SDS011;858;53.190;8.596;2022-10-17T10:19:52;10.30;;;7.88;;
1721;SDS011;858;53.190;8.596;2022-10-17T10:22:20;8.88;;;6.97;;
1721;SDS011;858;53.190;8.596;2022-10-17T10:24:48;9.10;;;7.38;;
1721;SDS011;858;53.190;8.596;2022-10-17T10:27:32;9.57;;;7.25;;
1721;SDS011;858;53.190;8.596;2022-10-17T10:29:59;10.10;;;6.45;;
1721;SDS011;858;53.190;8.596;2022-10-17T10:32:26;9.85;;;6.78;;
1721;SDS011;858;53.190;8.596;2022-10-17T10:34:54;10.10;;;7.00;;
1721;SDS011;858;53.190;8.596;2022-10-17T10:37:22;8.02;;;7.20;;
1721;SDS011;858;53.190;8.596;2022-10-17T10:39:50;8.73;;;7.30;;
1721;SDS011;858;53.190;8.596;2022-10-17T10:42:19;10.82;;;7.45;;
1721;SDS011;858;53.190;8.596;2022-10-17T10:44:48;9.27;;;7.45;;
1721;SDS011;858;53.190;8.596;2022-10-17T10:47:20;10.05;;;7.38;;
1721;SDS011;858;53.190;8.596;2022-10-17T10:49:47;11.98;;;7.85;;
1721;SDS011;858;53.190;8.596;2022-10-17T10:52:18;9.88;;;7.78;;
1721;SDS011;858;53.190;8.596;2022-10-17T10:54:50;8.02;;;6.95;;
1721;SDS011;858;53.190;8.596;2022-10-17T10:57:19;10.20;;;8.00;;
1721;SDS011;858;53.190;8.596;2022-10-17T10:59:51;8.35;;;7.55;;
1721;SDS011;858;53.190;8.596;2022-10-17T11:02:22;11.65;;;8.00;;
1721;SDS011;858;53.190;8.596;2022-10-17T11:04:51;9.40;;;7.50;;
1721;SDS011;858;53.190;8.596;2022-10-17T11:07:22;9.98;;;8.40;;
1721;SDS011;858;53.190;8.596;2022-10-17T11:09:52;8.13;;;7.32;;
1721;SDS011;858;53.190;8.596;2022-10-17T11:12:21;8.52;;;7.70;;
1721;SDS011;858;53.190;8.596;2022-10-17T11:14:50;12.77;;;7.78;;
1721;SDS011;858;53.190;8.596;2022-10-17T11:17:22;8.45;;;7.35;;
1721;SDS011;858;53.190;8.596;2022-10-17T11:19:53;9.50;;;7.80;;
1721;SDS011;858;53.190;8.596;2022-10-17T11:22:23;10.80;;;8.02;;
1721;SDS011;858;53.190;8.596;2022-10-17T11:24:53;11.85;;;8.20;;
1721;SDS011;858;53.190;8.596;2022-10-17T11:27:23;10.30;;;8.32;;
1721;SDS011;858;53.190;8.596;2022-10-17T11:29:51;12.05;;;8.80;;
1721;SDS011;858;53.190;8.596;2022-10-17T11:32:18;12.63;;;8.88;;
1721;SDS011;858;53.190;8.596;2022-10-17T11:34:48;13.48;;;9.07;;
1721;SDS011;858;53.190;8.596;2022-10-17T11:37:16;14.57;;;8.90;;
1721;SDS011;858;53.190;8.596;2022-10-17T11:39:46;10.88;;;9.00;;
1721;SDS011;858;53.190;8.596;2022-10-17T11:42:19;14.40;;;9.30;;
1721;SDS011;858;53.190;8.596;2022-10-17T11:44:49;12.38;;;9.10;;
1721;SDS011;858;53.190;8.596;2022-10-17T11:47:22;9.85;;;8.30;;
1721;SDS011;858;53.190;8.596;2022-10-17T11:49:53;11.18;;;9.02;;
1721;SDS011;858;53.190;8.596;2022-10-17T11:52:26;13.75;;;9.25;;
1721;SDS011;858;53.190;8.596;2022-10-17T11:54:54;11.35;;;9.30;;
1721;SDS011;858;53.190;8.596;2022-10-17T11:57:36;11.57;;;9.13;;
1721;SDS011;858;53.190;8.596;2022-10-17T12:00:14;12.77;;;10.00;;
1721;SDS011;858;53.190;8.596;2022-10-17T12:02:46;10.90;;;9.03;;
1721;SDS011;858;53.190;8.596;2022-10-17T12:05:20;11.85;;;8.98;;
1721;SDS011;858;53.190;8.596;2022-10-17T12:07:49;11.23;;;9.85;;
1721;SDS011;858;53.190;8.596;2022-10-17T12:10:23;12.90;;;10.57;;
1721;SDS011;858;53.190;8.596;2022-10-17T12:12:50;16.02;;;11.77;;
1721;SDS011;858;53.190;8.596;2022-10-17T12:15:26;13.00;;;11.70;;
1721;SDS011;858;53.190;8.596;2022-10-17T12:17:53;13.10;;;11.80;;
1721;SDS011;858;53.190;8.596;2022-10-17T12:20:38;13.83;;;12.20;;
1721;SDS011;858;53.190;8.596;2022-10-17T12:23:16;15.20;;;13.50;;
1721;SDS011;858;53.190;8.596;2022-10-17T12:25:47;15.50;;;13.90;;
1721;SDS011;858;53.190;8.596;2022-10-17T12:28:15;16.58;;;14.88;;
1721;SDS011;858;53.190;8.596;2022-10-17T12:30:52;17.17;;;14.40;;
1721;SDS011;858;53.190;8.596;2022-10-17T12:33:19;17.13;;;14.50;;
1721;SDS011;858;53.190;8.596;2022-10-17T12:38:37;17.90;;;16.00;;
1721;SDS011;858;53.190;8.596;2022-10-17T12:41:04;18.15;;;16.23;;
1721;SDS011;858;53.190;8.596;2022-10-17T12:43:33;21.17;;;18.63;;
1721;SDS011;858;53.190;8.596;2022-10-17T12:46:00;21.40;;;17.17;;
1721;SDS011;858;53.190;8.596;2022-10-17T12:51:12;23.40;;;17.37;;
1721;SDS011;858;53.190;8.596;2022-10-17T12:53:44;22.50;;;17.30;;
1721;SDS011;858;53.190;8.596;2022-10-17T12:56:14;21.23;;;17.67;;
1721;SDS011;858;53.190;8.596;2022-10-17T12:58:41;20.08;;;17.98;;
1721;SDS011;858;53.190;8.596;2022-10-17T13:01:08;18.75;;;16.65;;
1721;SDS011;858;53.190;8.596;2022-10-17T13:03:40;18.10;;;16.30;;
1721;SDS011;858;53.190;8.596;2022-10-17T13:06:12;19.85;;;17.75;;
1721;SDS011;858;53.190;8.596;2022-10-17T13:08:43;19.90;;;17.98;;
1721;SDS011;858;53.190;8.596;2022-10-17T13:11:11;18.40;;;16.50;;
1721;SDS011;858;53.190;8.596;2022-10-17T13:13:40;19.10;;;17.10;;
1721;SDS011;858;53.190;8.596;2022-10-17T13:16:07;17.95;;;16.02;;
1721;SDS011;858;53.190;8.596;2022-10-17T13:18:34;19.85;;;15.80;;
1721;SDS011;858;53.190;8.596;2022-10-17T13:21:00;18.05;;;16.33;;
1721;SDS011;858;53.190;8.596;2022-10-17T13:23:31;17.02;;;15.23;;
1721;SDS011;858;53.190;8.596;2022-10-17T13:26:07;16.20;;;14.60;;
1721;SDS011;858;53.190;8.596;2022-10-17T13:28:37;16.95;;;15.15;;
1721;SDS011;858;53.190;8.596;2022-10-17T13:31:05;15.40;;;13.90;;
1721;SDS011;858;53.190;8.596;2022-10-17T13:33:32;15.10;;;13.50;;
1721;SDS011;858;53.190;8.596;2022-10-17T13:35:59;16.33;;;13.40;;
1721;SDS011;858;53.190;8.596;2022-10-17T13:38:27;14.50;;;13.00;;
1721;SDS011;858;53.190;8.596;2022-10-17T13:40:54;14.65;;;13.15;;
1721;SDS011;858;53.190;8.596;2022-10-17T13:43:22;15.27;;;13.77;;
1721;SDS011;858;53.190;8.596;2022-10-17T13:45:50;15.63;;;14.02;;
1721;SDS011;858;53.190;8.596;2022-10-17T13:48:17;16.52;;;14.60;;
1721;SDS011;858;53.190;8.596;2022-10-17T13:50:46;19.17;;;14.60;;
1721;SDS011;858;53.190;8.596;2022-10-17T13:53:18;14.75;;;13.20;;
1721;SDS011;858;53.190;8.596;2022-10-17T13:55:52;17.33;;;13.23;;
1721;SDS011;858;53.190;8.596;2022-10-17T13:58:19;14.13;;;12.82;;
1721;SDS011;858;53.190;8.596;2022-10-17T14:00:46;16.00;;;13.13;;
1721;SDS011;858;53.190;8.596;2022-10-17T14:03:14;20.60;;;13.80;;
1721;SDS011;858;53.190;8.596;2022-10-17T14:06:03;17.60;;;13.48;;
1721;SDS011;858;53.190;8.596;2022-10-17T14:08:31;15.90;;;12.10;;
1721;SDS011;858;53.190;8.596;2022-10-17T14:10:58;17.98;;;12.48;;
1721;SDS011;858;53.190;8.596;2022-10-17T14:13:25;14.02;;;11.80;;
1721;SDS011;858;53.190;8.596;2022-10-17T14:15:54;12.43;;;11.02;;
1721;SDS011;858;53.190;8.596;2022-10-17T14:18:22;13.25;;;10.85;;
1721;SDS011;858;53.190;8.596;2022-10-17T14:20:50;12.53;;;10.80;;
1721;SDS011;858;53.190;8.596;2022-10-17T14:26:04;12.35;;;10.80;;
1721;SDS011;858;53.190;8.596;2022-10-17T14:28:31;14.13;;;10.48;;
1721;SDS011;858;53.190;8.596;2022-10-17T14:31:09;11.63;;;10.20;;
1721;SDS011;858;53.190;8.596;2022-10-17T14:33:41;12.23;;;9.88;;
1721;SDS011;858;53.190;8.596;2022-10-17T14:36:08;11.18;;;9.45;;
1721;SDS011;858;53.190;8.596;2022-10-17T14:38:34;11.77;;;9.65;;
1721;SDS011;858;53.190;8.596;2022-10-17T14:41:02;13.10;;;9.63;;
1721;SDS011;858;53.190;8.596;2022-10-17T14:43:30;10.70;;;9.70;;
1721;SDS011;858;53.190;8.596;2022-10-17T14:45:57;10.27;;;9.27;;
1721;SDS011;858;53.190;8.596;2022-10-17T14:48:27;10.90;;;9.70;;
1721;SDS011;858;53.190;8.596;2022-10-17T14:51:09;11.07;;;9.88;;
1721;SDS011;858;53.190;8.596;2022-10-17T14:53:35;11.10;;;9.93;;
1721;SDS011;858;53.190;8.596;2022-10-17T14:56:04;10.55;;;9.55;;
1721;SDS011;858;53.190;8.596;2022-10-17T14:58:32;11.95;;;9.80;;
1721;SDS011;858;53.190;8.596;2022-10-17T15:01:00;9.80;;;8.90;;
1721;SDS011;858;53.190;8.596;2022-10-17T15:03:28;11.15;;;9.00;;
1721;SDS011;858;53.190;8.596;2022-10-17T15:05:54;10.60;;;9.50;;
1721;SDS011;858;53.190;8.596;2022-10-17T15:08:22;10.80;;;9.70;;
1721;SDS011;858;53.190;8.596;2022-10-17T15:10:49;13.05;;;10.30;;
1721;SDS011;858;53.190;8.596;2022-10-17T15:13:15;11.90;;;10.43;;
1721;SDS011;858;53.190;8.596;2022-10-17T15:15:42;10.40;;;9.35;;
1721;SDS011;858;53.190;8.596;2022-10-17T15:18:09;12.70;;;10.02;;
1721;SDS011;858;53.190;8.596;2022-10-17T15:20:37;11.88;;;9.90;;
1721;SDS011;858;53.190;8.596;2022-10-17T15:23:04;13.05;;;10.48;;
1721;SDS011;858;53.190;8.596;2022-10-17T15:25:31;12.97;;;10.50;;
1721;SDS011;858;53.190;8.596;2022-10-17T15:27:59;11.23;;;10.02;;
1721;SDS011;858;53.190;8.596;2022-10-17T15:30:26;12.70;;;10.98;;
1721;SDS011;858;53.190;8.596;2022-10-17T15:32:53;12.20;;;10.85;;
1721;SDS011;858;53.190;8.596;2022-10-17T15:35:19;12.00;;;10.80;;
1721;SDS011;858;53.190;8.596;2022-10-17T15:37:47;14.40;;;10.30;;
1721;SDS011;858;53.190;8.596;2022-10-17T15:40:14;11.82;;;10.63;;
1721;SDS011;858;53.190;8.596;2022-10-17T15:42:41;12.93;;;10.20;;